KSAA

Shively Field Airport

Saratoga, Wyoming, USA
METAR KSAA 150055Z AUTO 32015G22KT 10SM SCT026 SCT070 BKN110 20/04 A3016 RMK AO2
Observed Flight Rules
Aug-15 @ 00:55 UTC (12 minutes ago) Visual Flight Rules
Wind Visibility Clouds
320° at 15 knots
 Gusting to 22 knots
10 miles
  • Scattered at 2,600' AGL
  • Scattered at 7,000' AGL
  • Broken at 11,000' AGL
Temperatures Readings
Current 20°C / 68°F
Dewpoint 4°C / 39°F
Humidity 35%
Altimeter 30.16" Hg
Pressure 1021 hPa
Elevation 2138
METAR KSAA 150055Z AUTO 32015G22KT 10SM SCT026 SCT070 BKN110 20/04 A3016 RMK AO2
Observed Flight Rules
Aug-15 @ 00:55 UTC
(12 minutes ago)
VFR
Wind Visibility
320° at 15 knots
 Gusting to 22 knots
10 miles
Clouds
  • Scattered at 2,600' AGL
  • Scattered at 7,000' AGL
  • Broken at 11,000' AGL
Temperature Dewpoint
20°C / 68°F 4°C / 39°F
Humidity Altimeter Pressure
35% 30.16" Hg 1021 hPa